Time;durP1;ratioP1;P1;durP2;ratioP2;P2;SDS_P1;SDS_P2;PMS_P1;PMS_P2;Temp;Humidity;BMP_temperature;BMP_pressure;BME280_temperature;BME280_humidity;BME280_pressure;Samples;Min_cycle;Max_cycle;Signal;HPM_P1;HPM_P2
2021/01/18 00:00:58;;;;;;;53.73;24.10;;;;;;;-10.67;44.67;99358.69;1794500;79;21685;-43
2021/01/18 00:03:26;;;;;;;;;;;;;;;-10.70;44.68;99353.11;1793911;79;21112;-44
2021/01/18 00:05:55;;;;;;;45.38;21.65;;;;;;;-10.74;44.59;99360.59;1791069;79;20284;-43
2021/01/18 00:08:24;;;;;;;43.30;20.63;;;;;;;-10.83;44.70;99371.08;1774845;79;21147;-43
2021/01/18 00:10:52;;;;;;;45.30;20.50;;;;;;;-10.82;44.71;99370.57;1796834;79;21281;-43
2021/01/18 00:13:20;;;;;;;42.35;20.82;;;;;;;-10.83;44.68;99379.44;1774603;79;21127;-44
2021/01/18 00:15:49;;;;;;;46.73;21.35;;;;;;;-10.83;44.72;99374.20;1798002;79;21044;-43
2021/01/18 00:18:17;;;;;;;49.73;20.62;;;;;;;-10.77;44.65;99378.56;1799114;79;21149;-43
2021/01/18 00:20:48;;;;;;;48.98;21.40;;;;;;;-10.73;44.66;99391.00;1758767;80;21036;-43
2021/01/18 00:23:16;;;;;;;46.87;21.37;;;;;;;-10.68;44.56;99389.02;1805961;78;21632;-43
2021/01/18 00:25:46;;;;;;;45.80;21.25;;;;;;;-10.69;44.49;99388.73;1783277;78;21194;-43
2021/01/18 00:28:14;;;;;;;45.10;22.05;;;;;;;-10.73;44.56;99384.95;1802404;78;21148;-44
2021/01/18 00:30:45;;;;;;;49.50;21.97;;;;;;;-10.67;44.55;99382.77;1811229;78;21138;-43
2021/01/18 00:33:13;;;;;;;47.17;21.25;;;;;;;-10.63;44.53;99378.69;1799288;78;21143;-43
2021/01/18 00:35:41;;;;;;;42.67;19.92;;;;;;;-10.60;44.55;99375.64;1790266;78;21203;-43
2021/01/18 00:38:09;;;;;;;40.90;19.45;;;;;;;-10.55;44.34;99374.44;1804762;79;21521;-42
2021/01/18 00:40:37;;;;;;;40.03;18.90;;;;;;;-10.57;44.27;99372.56;1804407;78;21440;-43
2021/01/18 00:43:05;;;;;;;40.25;18.60;;;;;;;-10.63;44.18;99374.25;1810584;78;21146;-43
2021/01/18 00:45:34;;;;;;;36.80;18.35;;;;;;;-10.71;44.41;99372.45;1813260;78;21150;-43
2021/01/18 00:48:02;;;;;;;38.65;17.77;;;;;;;-11.27;44.54;99305.47;1747641;80;21273;-43
2021/01/18 00:50:30;;;;;;;37.38;16.77;;;;;;;-10.80;44.68;99381.64;1769650;80;21111;-43
2021/01/18 00:52:59;;;;;;;39.92;18.82;;;;;;;-10.79;44.71;99380.09;1766626;80;21131;-43
2021/01/18 00:55:28;;;;;;;37.38;17.35;;;;;;;-10.77;44.97;99390.35;1779927;79;21620;-43
2021/01/18 00:58:04;;;;;;;35.90;16.48;;;;;;;-10.69;45.00;99380.87;1766955;78;21118;-43
2021/01/18 01:00:35;;;;;;;37.93;18.30;;;;;;;-10.64;44.99;99390.17;1788750;78;21362;-43
2021/01/18 01:03:04;;;;;;;34.75;16.50;;;;;;;-10.58;45.12;99382.75;1792046;78;21091;-43
2021/01/18 01:05:32;;;;;;;40.30;17.17;;;;;;;-10.54;44.88;99382.59;1794960;78;21024;-43
2021/01/18 01:08:00;;;;;;;37.23;17.50;;;;;;;-10.60;44.82;99384.81;1806890;78;21155;-43
2021/01/18 01:10:34;;;;;;;34.98;16.60;;;;;;;-10.63;45.00;99383.92;1804832;78;21118;-43
2021/01/18 01:13:05;;;;;;;33.70;16.50;;;;;;;-10.67;45.04;99385.39;1812615;78;21364;-43
2021/01/18 01:15:35;;;;;;;30.30;15.05;;;;;;;-10.75;45.29;99385.20;1803958;79;21004;-43
2021/01/18 01:18:04;;;;;;;35.10;16.42;;;;;;;-10.71;45.54;99383.73;1804954;78;21100;-43
2021/01/18 01:20:32;;;;;;;32.70;16.17;;;;;;;-10.62;45.17;99369.81;1804666;78;21163;-43
2021/01/18 01:23:00;;;;;;;34.48;15.25;;;;;;;-10.74;45.20;99374.98;1804937;78;21123;-43
2021/01/18 01:25:28;;;;;;;34.48;15.70;;;;;;;-10.77;45.51;99375.95;1801370;78;22083;-43
2021/01/18 01:27:57;;;;;;;34.95;15.43;;;;;;;-10.79;45.65;99376.66;1802005;79;21124;-43
2021/01/18 01:30:25;;;;;;;32.70;16.05;;;;;;;-10.80;45.91;99373.78;1790520;78;21467;-43
2021/01/18 01:32:54;;;;;;;40.23;17.02;;;;;;;-10.76;45.92;99380.17;1797395;78;21150;-43
2021/01/18 01:35:26;;;;;;;31.95;15.20;;;;;;;-10.68;45.94;99373.31;1813973;78;20999;-43
2021/01/18 01:37:55;;;;;;;34.80;16.60;;;;;;;-10.62;45.91;99373.73;1792326;78;21416;-43
2021/01/18 01:40:24;;;;;;;35.15;17.07;;;;;;;-10.60;45.95;99370.41;1799628;79;21139;-43
2021/01/18 01:42:52;;;;;;;31.42;15.85;;;;;;;-10.52;45.84;99376.63;1800674;78;21170;-42
2021/01/18 01:45:20;;;;;;;36.15;16.02;;;;;;;-10.47;45.76;99370.21;1787809;78;21138;-43
2021/01/18 01:47:51;;;;;;;25.67;13.47;;;;;;;-10.42;45.77;99370.34;1789099;79;21155;-43
2021/01/18 01:50:23;;;;;;;34.53;16.07;;;;;;;-10.35;45.66;99371.03;1783451;80;21162;-43
2021/01/18 01:53:03;;;;;;;33.70;16.02;;;;;;;-10.29;45.23;99370.14;1748544;82;21728;-43
2021/01/18 01:55:33;;;;;;;31.37;15.23;;;;;;;-10.34;45.19;99370.52;1785487;78;21175;-43
2021/01/18 01:58:02;;;;;;;32.33;14.53;;;;;;;-10.31;45.34;99375.34;1811789;78;21135;-43
2021/01/18 02:00:37;;;;;;;31.73;15.60;;;;;;;-10.31;45.29;99372.72;1804032;78;21157;-43
2021/01/18 02:03:10;;;;;;;29.27;13.98;;;;;;;-10.36;45.51;99379.94;1806695;78;22287;-43
2021/01/18 02:05:39;;;;;;;29.30;15.03;;;;;;;-10.33;45.50;99377.37;1811793;78;21123;-43
2021/01/18 02:08:09;;;;;;;23.50;11.73;;;;;;;-10.31;45.44;99381.34;1807950;78;21009;-43
2021/01/18 02:10:38;;;;;;;30.35;15.28;;;;;;;-10.27;45.21;99375.97;1787797;79;21044;-43
2021/01/18 02:13:50;;;;;;;27.58;14.73;;;;;;;-10.28;45.12;99377.50;1738474;82;21580;-44
2021/01/18 02:16:31;;;;;;;31.85;14.85;;;;;;;-10.32;45.05;99371.91;1737283;82;21477;-43
2021/01/18 02:19:28;;;;;;;31.62;15.48;;;;;;;-10.43;45.00;99360.87;1800933;78;21628;-44
2021/01/18 02:22:32;;;;;;;30.88;14.70;;;;;;;-10.51;45.15;99364.33;1809438;78;21166;-44
2021/01/18 02:25:31;;;;;;;29.10;15.20;;;;;;;-10.64;45.31;99363.48;1813198;78;21158;-43
2021/01/18 02:28:34;;;;;;;28.90;14.03;;;;;;;-10.71;45.57;99360.66;1797122;78;21126;-43
2021/01/18 02:31:58;;;;;;;28.85;14.15;;;;;;;-10.71;45.67;99368.02;1799358;78;21283;-43
2021/01/18 02:35:01;;;;;;;29.37;14.93;;;;;;;-10.64;45.51;99369.22;1786210;79;21561;-43
2021/01/18 02:38:10;;;;;;;30.08;15.35;;;;;;;-10.67;45.49;99370.48;1758405;78;21127;-43
2021/01/18 02:41:02;;;;;;;29.55;15.43;;;;;;;-10.69;45.43;99373.02;1801833;79;21154;-43
2021/01/18 02:43:46;;;;;;;29.27;14.53;;;;;;;-10.75;45.54;99361.63;1794860;78;21549;-44
2021/01/18 02:46:19;;;;;;;34.75;16.87;;;;;;;-11.15;45.39;99296.39;1777493;80;21279;-43
2021/01/18 02:48:48;;;;;;;36.13;17.32;;;;;;;-10.62;45.17;99371.13;1789907;78;21019;-43
2021/01/18 02:51:18;;;;;;;40.92;17.85;;;;;;;-10.60;45.16;99371.70;1794934;78;21616;-43
2021/01/18 02:53:59;;;;;;;48.75;20.72;;;;;;;-10.57;44.97;99363.39;1786214;79;21636;-43
2021/01/18 02:56:33;;;;;;;48.02;20.92;;;;;;;-10.61;44.88;99364.36;1806576;79;21162;-43
2021/01/18 02:59:03;;;;;;;44.60;20.85;;;;;;;-10.65;44.81;99369.73;1784310;79;21727;-43
2021/01/18 03:01:48;;;;;;;48.02;20.75;;;;;;;-10.63;44.79;99377.38;1809221;78;21051;-44
2021/01/18 03:04:40;;;;;;;51.92;21.75;;;;;;;-10.69;44.43;99393.97;1797549;78;21123;-43
2021/01/18 03:07:16;;;;;;;48.35;20.97;;;;;;;-10.78;44.35;99390.05;1814324;78;21620;-43
2021/01/18 03:10:01;;;;;;;47.45;21.80;;;;;;;-10.86;44.58;99391.67;1789277;79;21093;-43
2021/01/18 03:12:40;;;;;;;49.27;22.02;;;;;;;-10.90;44.76;99393.14;1807187;78;21372;-43
2021/01/18 03:15:12;;;;;;;50.00;21.53;;;;;;;-10.93;44.81;99390.44;1798138;79;21044;-43
2021/01/18 03:17:41;;;;;;;51.55;23.45;;;;;;;-10.91;44.96;99392.84;1808359;78;21154;-43
2021/01/18 03:20:11;;;;;;;52.23;23.47;;;;;;;-10.91;44.99;99387.10;1787252;79;21569;-44
2021/01/18 03:22:39;;;;;;;47.40;22.75;;;;;;;-10.85;44.86;99390.16;1778353;79;21127;-43
2021/01/18 03:25:09;;;;;;;46.30;20.72;;;;;;;-10.80;44.93;99396.04;1796083;79;21376;-43
2021/01/18 03:27:52;;;;;;;44.38;20.37;;;;;;;-10.73;44.84;99403.29;1736539;82;21088;-43
2021/01/18 03:30:21;;;;;;;39.78;19.37;;;;;;;-10.77;44.91;99396.90;1761402;80;21178;-43
2021/01/18 03:32:54;;;;;;;37.88;19.02;;;;;;;-10.78;45.10;99397.91;1713442;81;21151;-43
2021/01/18 03:35:23;;;;;;;36.48;18.30;;;;;;;-10.75;45.12;99406.15;1758347;81;21442;-43
2021/01/18 03:37:55;;;;;;;37.38;18.02;;;;;;;-10.72;45.34;99398.34;1729343;83;21422;-43
2021/01/18 03:40:25;;;;;;;39.20;18.57;;;;;;;-10.70;45.46;99401.56;1709659;80;21203;-43
2021/01/18 03:43:00;;;;;;;37.38;17.85;;;;;;;-10.65;45.50;99402.47;1716722;81;21556;-43
2021/01/18 03:45:31;;;;;;;40.98;18.02;;;;;;;-10.62;45.56;99407.28;1734302;81;21159;-43
2021/01/18 03:47:59;;;;;;;38.67;17.73;;;;;;;-10.56;45.55;99391.20;1758887;81;22159;-44
2021/01/18 03:50:28;;;;;;;36.30;17.17;;;;;;;-10.48;45.46;99394.00;1743913;80;21391;-43
2021/01/18 03:52:56;;;;;;;34.88;16.48;;;;;;;-10.40;45.43;99397.10;1757908;81;21190;-43
2021/01/18 03:55:25;;;;;;;30.77;15.88;;;;;;;-10.37;45.42;99391.94;1744896;80;20995;-43
2021/01/18 03:57:55;;;;;;;36.65;17.17;;;;;;;-10.39;45.58;99386.91;1714576;82;21159;-43
2021/01/18 04:00:28;;;;;;;32.80;17.05;;;;;;;-10.35;45.63;99394.62;1738130;80;21539;-43
2021/01/18 04:02:56;;;;;;;33.45;16.02;;;;;;;-10.30;45.65;99393.94;1741621;80;21397;-43
2021/01/18 04:05:25;;;;;;;30.10;16.57;;;;;;;-10.25;45.51;99392.25;1744417;80;21169;-43
2021/01/18 04:07:54;;;;;;;25.10;14.20;;;;;;;-10.27;45.68;99389.08;1738182;81;21576;-43
2021/01/18 04:10:26;;;;;;;35.83;15.85;;;;;;;-10.26;45.55;99393.27;1745514;80;21623;-43
2021/01/18 04:12:55;;;;;;;36.33;16.62;;;;;;;-10.27;45.62;99389.59;1743014;80;21140;-43
2021/01/18 04:15:24;;;;;;;35.50;17.48;;;;;;;-10.24;45.64;99383.88;1739857;80;21409;-43
2021/01/18 04:17:55;;;;;;;32.03;16.87;;;;;;;-10.17;45.45;99385.41;1724174;81;21132;-43
2021/01/18 04:20:24;;;;;;;36.55;16.50;;;;;;;-10.15;45.45;99379.88;1744705;80;21692;-43
2021/01/18 04:22:58;;;;;;;34.85;17.10;;;;;;;-10.10;45.38;99393.12;1775369;80;21564;-43
2021/01/18 04:25:27;;;;;;;29.07;14.18;;;;;;;-10.07;45.46;99390.06;1767706;80;21175;-44
2021/01/18 04:27:58;;;;;;;33.70;16.42;;;;;;;-10.07;45.13;99391.37;1796865;78;21379;-43
2021/01/18 04:30:28;;;;;;;36.00;16.20;;;;;;;-10.21;45.06;99392.09;1820405;78;21024;-43
2021/01/18 04:33:01;;;;;;;35.40;16.45;;;;;;;-10.28;45.39;99397.95;1816024;78;21183;-43
2021/01/18 04:35:30;;;;;;;39.88;16.60;;;;;;;-10.22;45.39;99401.51;1806531;78;21158;-43
2021/01/18 04:37:58;;;;;;;32.48;15.98;;;;;;;-10.26;45.30;99402.98;1795346;78;21671;-43
2021/01/18 04:40:29;;;;;;;34.35;15.60;;;;;;;-10.28;45.26;99404.51;1795552;78;23421;-44
2021/01/18 04:42:58;;;;;;;33.48;14.93;;;;;;;-10.33;45.37;99399.14;1802762;78;21167;-43
2021/01/18 04:45:28;;;;;;;32.73;15.55;;;;;;;-10.32;45.41;99404.67;1795665;78;21142;-43
2021/01/18 04:47:57;;;;;;;33.10;16.02;;;;;;;-10.27;45.15;99402.18;1807032;78;21552;-43
2021/01/18 04:50:27;;;;;;;34.05;16.20;;;;;;;-10.32;45.11;99409.91;1823191;78;21617;-43
2021/01/18 04:53:02;;;;;;;34.03;15.78;;;;;;;-10.35;45.22;99401.17;1797880;78;21194;-43
2021/01/18 04:55:40;;;;;;;36.75;16.17;;;;;;;-10.41;45.35;99403.39;1822043;78;21607;-43
2021/01/18 04:58:12;;;;;;;34.35;16.40;;;;;;;-10.42;45.28;99399.16;1818202;78;21707;-44
2021/01/18 05:00:51;;;;;;;35.00;15.38;;;;;;;-10.44;45.33;99398.58;1815542;78;21538;-43
2021/01/18 05:03:24;;;;;;;34.90;16.15;;;;;;;-10.41;45.17;99403.39;1810076;77;21178;-43
2021/01/18 05:06:09;;;;;;;31.20;14.98;;;;;;;-10.38;45.27;99408.69;1815931;78;21605;-43
2021/01/18 05:09:18;;;;;;;33.45;15.13;;;;;;;-10.35;45.12;99409.03;1795408;78;21137;-43
2021/01/18 05:11:50;;;;;;;31.77;15.10;;;;;;;-10.33;45.04;99407.00;1809581;78;21149;-43
2021/01/18 05:14:18;;;;;;;38.48;16.85;;;;;;;-10.29;44.90;99409.45;1795357;78;21147;-43
2021/01/18 05:16:56;;;;;;;34.05;16.48;;;;;;;-10.34;44.70;99412.45;1805022;78;21162;-43
2021/01/18 05:19:26;;;;;;;39.58;18.75;;;;;;;-10.38;44.63;99409.48;1808657;78;21518;-43
2021/01/18 05:21:54;;;;;;;42.50;18.67;;;;;;;-10.41;44.66;99415.18;1808510;79;21020;-44
2021/01/18 05:24:22;;;;;;;39.90;18.50;;;;;;;-10.42;44.50;99427.98;1788858;78;20996;-43
2021/01/18 05:27:05;;;;;;;43.00;17.75;;;;;;;-10.45;44.61;99428.41;1787155;78;21130;-43
2021/01/18 05:29:35;;;;;;;41.63;18.45;;;;;;;-10.42;44.56;99423.25;1790647;79;21048;-43
2021/01/18 05:32:07;;;;;;;37.30;16.75;;;;;;;-10.45;44.49;99431.03;1796034;78;21408;-44
2021/01/18 05:34:37;;;;;;;38.15;17.50;;;;;;;-10.51;44.57;99439.00;1773732;78;21564;-43
2021/01/18 05:37:05;;;;;;;35.43;17.35;;;;;;;-10.51;44.46;99449.47;1815045;79;21118;-43
2021/01/18 05:39:33;;;;;;;37.78;17.50;;;;;;;-10.54;44.53;99459.06;1731184;79;21377;-43
2021/01/18 05:42:02;;;;;;;38.98;16.93;;;;;;;-10.53;44.62;99459.36;1789255;78;21122;-43
2021/01/18 05:44:37;;;;;;;36.42;17.80;;;;;;;-10.51;44.55;99462.06;1784547;79;21200;-43
2021/01/18 05:47:10;;;;;;;37.95;19.32;;;;;;;-10.51;44.55;99465.19;1812226;78;21023;-43
2021/01/18 05:49:42;;;;;;;41.88;19.92;;;;;;;-10.48;44.41;99465.55;1795935;78;21197;-43
2021/01/18 05:52:30;;;;;;;44.33;20.35;;;;;;;-10.48;44.27;99460.30;1793711;78;21182;-43
2021/01/18 05:55:21;;;;;;;47.40;21.57;;;;;;;-10.51;44.18;99459.45;1784690;78;21187;-43
2021/01/18 05:58:02;;;;;;;40.43;20.50;;;;;;;-10.51;44.11;99461.27;1784080;78;21193;-43
2021/01/18 06:00:38;;;;;;;42.90;20.00;;;;;;;-10.52;44.00;99470.94;1787458;78;21098;-43
2021/01/18 06:03:08;;;;;;;38.10;19.32;;;;;;;-10.63;43.73;99469.85;1800827;78;21066;-43
2021/01/18 06:05:40;;;;;;;34.00;17.67;;;;;;;-10.79;44.07;99472.24;1784154;78;21138;-43
2021/01/18 06:08:17;;;;;;;33.67;16.62;;;;;;;-10.82;44.14;99476.11;1789093;78;21656;-43
2021/01/18 06:12:27;;;;;;;32.53;17.50;;;;;;;-10.70;43.99;99478.81;1815151;77;22724;-44
2021/01/18 06:15:16;;;;;;;39.70;17.67;;;;;;;-10.80;44.03;99474.59;1766804;80;21149;-44
2021/01/18 06:17:47;;;;;;;49.10;22.77;;;;;;;-10.80;43.93;99471.47;1769226;80;21358;-45
2021/01/18 06:20:21;;;;;;;56.88;25.97;;;;;;;-10.88;43.89;99479.59;1786784;80;21044;-45
2021/01/18 06:22:57;;;;;;;63.73;27.48;;;;;;;-10.98;44.01;99478.49;1786845;80;21581;-44
2021/01/18 06:25:34;;;;;;;55.58;25.08;;;;;;;-11.01;44.17;99487.09;1782373;80;21620;-45
2021/01/18 06:28:04;;;;;;;50.58;23.22;;;;;;;-10.97;44.34;99485.34;1718719;83;21204;-44
2021/01/18 06:30:32;;;;;;;62.25;28.17;;;;;;;-10.92;44.30;99488.11;1740707;81;21374;-44
2021/01/18 06:33:12;;;;;;;66.53;29.82;;;;;;;-10.89;44.31;99492.39;1741313;81;21012;-44
2021/01/18 06:35:40;;;;;;;66.47;29.23;;;;;;;-10.87;44.34;99498.22;1723341;83;21019;-44
2021/01/18 06:38:10;;;;;;;64.77;29.13;;;;;;;-10.82;44.32;99500.98;1723075;81;21055;-44
2021/01/18 06:40:39;;;;;;;48.85;21.62;;;;;;;-10.76;44.36;99500.63;1701743;83;21794;-44
2021/01/18 06:43:09;;;;;;;35.92;16.45;;;;;;;-10.68;44.24;99505.58;1704049;83;22190;-45
2021/01/18 06:45:39;;;;;;;26.40;12.70;;;;;;;-10.73;44.07;99510.66;1721667;82;21182;-44
2021/01/18 06:48:09;;;;;;;25.60;12.95;;;;;;;-11.04;44.20;99503.74;1720104;83;21044;-44
2021/01/18 06:50:40;;;;;;;25.50;12.80;;;;;;;-11.46;44.99;99507.91;1720941;81;21116;-44
2021/01/18 06:53:17;;;;;;;25.80;12.82;;;;;;;-11.88;46.01;99507.34;1727389;82;21186;-44
2021/01/18 06:56:25;;;;;;;28.40;13.58;;;;;;;-12.20;46.87;99517.80;1739646;82;21420;-42
2021/01/18 06:59:27;;;;;;;28.65;12.03;;;;;;;-12.45;47.81;99521.61;1719952;83;21119;-43
2021/01/18 07:02:23;;;;;;;24.02;12.50;;;;;;;-12.70;48.62;99514.66;1720145;82;21190;-43
2021/01/18 07:04:52;;;;;;;24.35;12.20;;;;;;;-12.74;49.29;99523.41;1727054;81;21131;-43
2021/01/18 07:07:25;;;;;;;25.95;12.55;;;;;;;-12.69;49.77;99524.10;1724569;81;21538;-42
2021/01/18 07:10:07;;;;;;;23.47;12.93;;;;;;;-12.48;49.87;99514.67;1722570;82;22293;-43
2021/01/18 07:12:39;;;;;;;29.37;13.15;;;;;;;-12.35;49.83;99511.53;1721020;82;21152;-43
2021/01/18 07:15:09;;;;;;;29.60;13.72;;;;;;;-12.23;50.15;99516.08;1720023;82;21187;-43
2021/01/18 07:17:54;;;;;;;30.23;14.50;;;;;;;-12.06;49.93;99518.52;1725574;82;21108;-43
2021/01/18 07:20:28;;;;;;;28.02;13.22;;;;;;;-11.93;50.13;99515.32;1723756;83;21115;-43
2021/01/18 07:23:25;;;;;;;31.37;13.35;;;;;;;-11.71;49.97;99523.58;1726168;82;21579;-42
2021/01/18 07:26:14;;;;;;;24.80;12.45;;;;;;;-11.57;49.91;99534.78;1726242;82;21162;-43
2021/01/18 07:28:47;;;;;;;31.63;14.97;;;;;;;-11.49;49.61;99527.97;1720833;82;21162;-42
2021/01/18 07:31:18;;;;;;;27.62;13.38;;;;;;;-11.46;49.74;99523.61;1719347;83;21166;-42
2021/01/18 07:33:47;;;;;;;32.78;14.75;;;;;;;-11.25;49.69;99527.17;1722568;82;21151;-43
2021/01/18 07:36:27;;;;;;;31.35;14.43;;;;;;;-11.16;49.41;99527.20;1720008;82;21423;-42
2021/01/18 07:38:55;;;;;;;;;;;;;;;-10.98;49.25;99536.08;1722685;82;21159;-43
2021/01/18 07:41:36;;;;;;;31.12;15.15;;;;;;;-10.80;48.98;99539.55;1713566;83;20510;-43
2021/01/18 07:44:27;;;;;;;24.63;13.38;;;;;;;-10.69;48.61;99541.94;1704759;83;21185;-43
2021/01/18 07:47:07;;;;;;;28.75;14.60;;;;;;;-10.60;48.11;99540.12;1719934;82;21215;-43
2021/01/18 07:49:47;;;;;;;31.33;14.98;;;;;;;-10.54;48.38;99547.62;1712452;83;20997;-43
2021/01/18 07:52:22;;;;;;;29.60;14.03;;;;;;;-10.39;48.13;99553.31;1717008;82;21206;-43
2021/01/18 07:54:51;;;;;;;30.30;14.18;;;;;;;-10.39;47.96;99552.00;1702841;82;21577;-43
2021/01/18 07:57:29;;;;;;;27.90;14.55;;;;;;;-10.31;48.30;99551.70;1704080;82;21574;-43
2021/01/18 08:00:23;;;;;;;27.98;14.53;;;;;;;-10.12;48.34;99561.11;1701417;84;21159;-42
2021/01/18 08:02:53;;;;;;;34.65;16.37;;;;;;;-9.91;47.91;99555.11;1709764;82;21367;-42
2021/01/18 08:05:27;;;;;;;29.20;13.35;;;;;;;-9.73;48.14;99554.55;1710880;82;21134;-42
2021/01/18 08:08:18;;;;;;;28.17;12.82;;;;;;;-9.51;48.08;99546.98;1728471;82;21186;-42
2021/01/18 08:11:06;;;;;;;28.42;13.50;;;;;;;-9.32;47.48;99547.20;1699248;84;21194;-43
2021/01/18 08:13:59;;;;;;;28.92;14.33;;;;;;;-9.14;47.26;99550.75;1683907;83;21419;-43
2021/01/18 08:16:40;;;;;;;28.35;13.78;;;;;;;-8.95;46.84;99549.62;1684174;83;21381;-43
2021/01/18 08:19:23;;;;;;;28.15;13.22;;;;;;;-8.93;46.16;99547.06;1678999;84;21659;-44
2021/01/18 08:22:00;;;;;;;25.68;13.45;;;;;;;-8.97;46.09;99539.88;1701256;84;21163;-43
2021/01/18 08:24:35;;;;;;;27.65;12.85;;;;;;;-8.84;46.31;99548.83;1701288;84;21124;-43
2021/01/18 08:27:07;;;;;;;24.75;13.53;;;;;;;-8.73;46.16;99544.09;1708655;82;21144;-44
2021/01/18 08:29:53;;;;;;;26.60;13.18;;;;;;;-8.57;45.64;99544.72;1658079;84;21223;-43
2021/01/18 08:32:34;;;;;;;25.88;14.10;;;;;;;-8.61;45.39;99551.95;1738002;81;21055;-44
2021/01/18 08:35:07;;;;;;;25.68;14.50;;;;;;;-8.71;45.53;99559.09;1754004;81;21159;-44
2021/01/18 08:37:38;;;;;;;32.08;15.03;;;;;;;-8.72;45.95;99556.21;1752675;81;21111;-44
2021/01/18 08:40:16;;;;;;;29.07;13.83;;;;;;;-8.51;46.02;99555.60;1741384;81;21677;-44
2021/01/18 08:42:52;;;;;;;30.68;15.93;;;;;;;-8.32;45.35;99552.31;1757578;80;21649;-44
2021/01/18 08:45:30;;;;;;;31.27;16.67;;;;;;;-8.36;45.41;99551.17;1739312;81;21608;-41
2021/01/18 08:48:01;;;;;;;28.95;14.68;;;;;;;-8.26;45.55;99554.50;1735894;82;21211;-42
2021/01/18 08:50:53;;;;;;;31.70;15.50;;;;;;;-8.08;45.05;99553.02;1737935;81;21171;-42
2021/01/18 08:53:32;;;;;;;26.40;13.72;;;;;;;-7.97;45.11;99543.78;1736696;82;21104;-42
2021/01/18 08:56:07;;;;;;;31.42;14.83;;;;;;;-7.77;44.64;99542.56;1741486;81;21935;-42
2021/01/18 08:58:44;;;;;;;29.10;15.30;;;;;;;-7.71;44.36;99541.11;1737222;81;21151;-42
2021/01/18 09:01:19;;;;;;;31.62;15.23;;;;;;;-7.64;44.58;99540.44;1738551;81;21448;-42
2021/01/18 09:03:59;;;;;;;28.62;14.85;;;;;;;-7.45;44.31;99548.91;1736514;80;21148;-42
2021/01/18 09:06:36;;;;;;;30.05;18.35;;;;;;;-7.23;43.67;99547.72;1802770;78;29285;-40
2021/01/18 09:09:05;;;;;;;25.92;14.80;;;;;;;-6.87;43.29;99543.26;1802138;79;20948;-40
2021/01/18 09:11:35;;;;;;;29.37;15.85;;;;;;;-6.75;42.03;99547.12;1815773;79;21181;-41
2021/01/18 09:14:04;;;;;;;25.57;14.20;;;;;;;-7.12;42.68;99542.90;1804452;77;21581;-41
2021/01/18 09:16:33;;;;;;;28.12;14.18;;;;;;;-7.30;43.04;99542.59;1794453;79;20996;-41
2021/01/18 09:19:08;;;;;;;32.78;15.88;;;;;;;-7.23;43.31;99535.86;1788783;79;20982;-40
2021/01/18 09:21:39;;;;;;;27.48;13.32;;;;;;;-7.06;42.66;99520.84;1737856;82;21063;-40
2021/01/18 09:24:09;;;;;;;28.73;14.93;;;;;;;-7.02;42.94;99526.70;1790737;79;21130;-40
2021/01/18 09:26:37;;;;;;;20.15;10.75;;;;;;;-7.00;42.75;99525.15;1746297;80;21044;-40
2021/01/18 09:29:06;;;;;;;25.50;12.93;;;;;;;-7.02;42.54;99519.34;1762265;80;21016;-41
2021/01/18 09:31:34;;;;;;;27.00;13.93;;;;;;;-7.18;42.52;99514.88;1765265;80;21142;-40
2021/01/18 09:34:12;;;;;;;25.70;13.80;;;;;;;-7.43;43.18;99515.77;1749124;80;21117;-40
2021/01/18 09:36:43;;;;;;;29.30;13.55;;;;;;;-7.35;43.50;99514.05;1766055;80;21251;-41
2021/01/18 09:39:20;;;;;;;29.37;14.68;;;;;;;-7.35;43.17;99503.00;1683108;83;21589;-40
2021/01/18 09:41:52;;;;;;;23.98;13.15;;;;;;;-7.27;43.29;99505.77;1740205;81;21032;-41
2021/01/18 09:44:21;;;;;;;26.02;13.38;;;;;;;-7.09;43.21;99517.38;1739660;81;21182;-41
2021/01/18 09:46:50;;;;;;;25.23;14.15;;;;;;;-6.94;42.75;99513.66;1748257;80;21163;-40
2021/01/18 09:49:27;;;;;;;23.95;12.58;;;;;;;-6.72;42.54;99513.69;1729054;80;21388;-43
2021/01/18 09:51:56;;;;;;;24.52;14.07;;;;;;;-6.67;41.80;99510.60;1735556;81;21162;-40
2021/01/18 09:54:26;;;;;;;24.63;13.48;;;;;;;-6.76;42.41;99509.42;1693274;83;21051;-40
2021/01/18 09:56:56;;;;;;;25.75;14.07;;;;;;;-6.58;42.11;99512.84;1716750;81;21722;-40
2021/01/18 09:59:25;;;;;;;25.17;13.58;;;;;;;-6.44;42.25;99512.75;1757889;80;21163;-40
2021/01/18 10:01:53;;;;;;;28.02;15.25;;;;;;;-6.20;41.87;99512.78;1798372;79;21133;-40
2021/01/18 10:04:23;;;;;;;25.20;13.65;;;;;;;-5.97;41.50;99515.67;1780265;80;21137;-40
2021/01/18 10:06:55;;;;;;;21.77;12.78;;;;;;;-5.71;40.96;99510.88;1757576;79;21031;-40
2021/01/18 10:09:24;;;;;;;23.22;13.48;;;;;;;-5.72;39.84;99502.19;1733256;81;21589;-40
2021/01/18 10:11:58;;;;;;;22.48;12.20;;;;;;;-6.21;40.27;99508.55;1730729;81;21154;-40
2021/01/18 10:14:28;;;;;;;23.18;13.50;;;;;;;-6.42;41.15;99509.33;1744261;81;22149;-40
2021/01/18 10:17:07;;;;;;;20.52;11.03;;;;;;;-6.41;41.24;99513.57;1741545;81;21070;-40
2021/01/18 10:19:37;;;;;;;25.77;13.95;;;;;;;-6.48;40.55;99511.63;1729023;81;21142;-40
2021/01/18 10:22:15;;;;;;;24.85;14.20;;;;;;;-6.66;41.71;99504.81;1737356;81;21605;-40
2021/01/18 10:24:55;;;;;;;24.40;13.35;;;;;;;-6.41;41.80;99512.25;1709394;81;21167;-40
2021/01/18 10:27:28;;;;;;;17.52;10.05;;;;;;;-6.04;41.59;99510.58;1732253;81;22063;-41
2021/01/18 10:30:21;;;;;;;21.65;12.45;;;;;;;-5.92;39.72;99505.97;1743501;80;21174;-40
2021/01/18 10:32:51;;;;;;;26.55;13.78;;;;;;;-6.21;40.16;99508.55;1697778;83;21174;-40
2021/01/18 10:35:35;;;;;;;22.62;11.60;;;;;;;-6.44;41.44;99500.88;1716562;82;21153;-40
2021/01/18 10:38:14;;;;;;;23.32;12.37;;;;;;;-6.44;41.44;99500.88;1745120;81;21167;-40
2021/01/18 10:40:46;;;;;;;29.63;15.15;;;;;;;-6.54;40.74;99500.23;1739940;81;21189;-41
2021/01/18 10:43:20;;;;;;;28.45;14.38;;;;;;;-6.82;41.38;99491.94;1715850;81;21039;-40
2021/01/18 10:45:49;;;;;;;24.35;13.38;;;;;;;-6.68;41.75;99502.41;1734503;81;21613;-41
2021/01/18 10:48:23;;;;;;;29.55;14.55;;;;;;;-6.50;41.63;99495.27;1759164;81;21158;-40
2021/01/18 10:51:01;;;;;;;27.95;14.05;;;;;;;-6.46;40.68;99493.73;1754719;81;21608;-40
2021/01/18 10:53:32;;;;;;;28.92;14.43;;;;;;;-6.78;40.99;99493.07;1734112;81;22266;-40
2021/01/18 10:56:17;;;;;;;25.40;12.70;;;;;;;-6.86;41.86;99500.06;1751893;81;21094;-41
2021/01/18 10:58:55;;;;;;;27.73;13.25;;;;;;;-6.61;41.65;99492.49;1736327;81;21142;-41
2021/01/18 11:01:25;;;;;;;30.43;15.78;;;;;;;-6.71;40.91;99487.61;1701741;83;22253;-41
2021/01/18 11:03:54;;;;;;;25.02;14.30;;;;;;;-7.00;41.64;99493.53;1728911;83;21545;-41
2021/01/18 11:06:22;;;;;;;25.45;13.28;;;;;;;-7.18;41.66;99492.48;1727686;81;21279;-41
2021/01/18 11:08:52;;;;;;;23.80;12.37;;;;;;;-7.45;42.08;99490.99;1725705;82;21625;-41
2021/01/18 11:11:26;;;;;;;22.48;12.40;;;;;;;-7.61;42.51;99488.65;1728950;82;21059;-41
2021/01/18 11:14:01;;;;;;;26.93;13.45;;;;;;;-7.65;42.90;99486.19;1728150;82;21151;-41
2021/01/18 11:16:30;;;;;;;26.25;14.45;;;;;;;-7.58;42.85;99477.63;1732402;82;21159;-41
2021/01/18 11:19:01;;;;;;;27.15;14.45;;;;;;;-7.54;42.65;99482.70;1740469;82;21579;-41
2021/01/18 11:21:30;;;;;;;28.15;13.93;;;;;;;-7.54;43.15;99487.16;1740960;82;21123;-41
2021/01/18 11:23:59;;;;;;;26.07;13.62;;;;;;;-7.45;42.80;99479.69;1717831;82;21584;-41
2021/01/18 11:26:28;;;;;;;24.87;13.10;;;;;;;-7.37;43.22;99480.08;1729223;82;21139;-40
2021/01/18 11:28:58;;;;;;;21.30;12.18;;;;;;;-7.02;43.18;99479.82;1713925;82;21194;-40
2021/01/18 11:31:27;;;;;;;22.70;12.43;;;;;;;-6.68;41.62;99466.81;1724025;80;21371;-40
2021/01/18 11:33:58;;;;;;;23.20;12.20;;;;;;;-6.47;41.48;99477.10;1716552;82;21437;-41
2021/01/18 11:36:27;;;;;;;22.30;12.73;;;;;;;-6.20;41.66;99475.84;1726754;82;21195;-40
2021/01/18 11:38:55;;;;;;;19.80;11.63;;;;;;;-5.74;41.09;99465.18;1743243;82;21565;-40
2021/01/18 11:41:24;;;;;;;21.62;12.18;;;;;;;-5.59;39.61;99472.44;1743203;82;21024;-40
2021/01/18 11:43:52;;;;;;;23.10;12.03;;;;;;;-5.86;39.19;99459.27;1714418;82;21210;-40
2021/01/18 11:46:21;;;;;;;23.80;13.73;;;;;;;-5.86;39.19;99459.27;1715578;82;21192;-40